INFORMACIÓN METAR y TAF
METAR FOR LEZG
ADDS - METARS form results

(1520 UTC 28 November 2022)
Data provider http://aviationweather.gov/metar/data/
 
METAR text: LEZG 281500Z 30022G33KT 9999 SCT060 14/04 Q1019
Conditions at: LEZG (ZARAGOZA (MIL/CI, ES) observed 1500 UTC 28 November 2022
Temperature: 14.0°C (57°F)
Dewpoint: 4.0°C (39°F) [RH = 51%]
Pressure (altimeter): 30.09 inches Hg (1019.0 mb)
Winds: from the WNW (300 degrees) at 25 MPH (22 knots; 11.3 m/s)
gusting to 38 MPH (33 knots; 17.0 m/s)
Visibility: 6 or more miles (10+ km)
Ceiling: at least 12,000 feet AGL
Clouds: scattered clouds at 6000 feet AGL
Weather: no significant weather observed at this time

METAR text: LEZG 281430Z 31022KT 280V340 9999 FEW060 14/04 Q1019
Conditions at: LEZG (ZARAGOZA (MIL/CI, ES) observed 1430 UTC 28 November 2022
Temperature: 14.0°C (57°F)
Dewpoint: 4.0°C (39°F) [RH = 51%]
Pressure (altimeter): 30.09 inches Hg (1019.0 mb)
Winds: from the NW (310 degrees) at 25 MPH (22 knots; 11.3 m/s)
Visibility: 6 or more miles (10+ km)
Ceiling: at least 12,000 feet AGL
Clouds: few clouds at 6000 feet AGL
Weather: no significant weather observed at this time

Forecast for: AMD
Text: TAF AMD LEZG 281304Z 2813/2912 29015KT 9999 FEW050 TX14/2813Z TN07/2906Z
Forecast period: 1300 UTC 28 November 2022 to 1200 UTC 29 November 2022
Forecast type: FROM: standard forecast or significant change
Winds: from the WNW (290 degrees) at 17 MPH (15 knots; 7.7 m/s)
Visibility: 6 or more miles (10+ km)
Ceiling: at least 12,000 feet AGL
Clouds: few clouds at 5000 feet AGL
Weather: no significant weather forecast for this period
Text: TEMPO 2813/2815 30025G35KT
Forecast period: 1300 to 1500 UTC 28 November 2022
Forecast type: TEMPORARY: The following changes expected for less than half the time period
Winds: from the WNW (300 degrees) at 29 MPH (25 knots; 12.9 m/s)
gusting to 40 MPH (35 knots; 18.0 m/s)
Visibility: missing
Ceiling: unknown
Clouds: missing
Weather: no significant weather forecast for this period

 MAPA DE AEROPUERTO

 INFORMACIÓN DE PISTA
Pista 12L Longitud 9843 ft Ancho 148 ft
Elevación 823 ft Umbral desplazado 0 ft Rumbo de pista 120
Pista 30R Longitud 9843 ft Ancho 148 ft
Elevación 834 ft Umbral desplazado 0 ft Rumbo de pista 300
Pista 12R Longitud 12198 ft Ancho 148 ft
Elevación 834 ft Umbral desplazado 0 ft Rumbo de pista 120
Pista 30L Longitud 12198 ft Ancho 148 ft
Elevación 863 ft Umbral desplazado 0 ft Rumbo de pista 300

 FRECUANCIAS DEL AEROPUERTO
Tipo APP Nombre APP Frecuencia 119.3 MHZ
Tipo GND Nombre GND Frecuencia 118.1 MHZ
Tipo TWR Nombre TWR Frecuencia 118.1 MHZ

 RADIO AYUDAS DEL AEROPUERTO
Tipo VOR-DME Nombre Zaragoza Frecuencia 113000 KHZ
Tipo NDB Nombre Zaragoza Frecuencia 389 KHZ
Tipo TACAN Nombre Zaragoza Frecuencia 133700 KHZ
Tipo NDB Nombre Zaragoza Frecuencia 348 KHZ




Powered by Virtual Airlines Manager